Impacts TAF Board
For situational awareness. Not to be used for flight planning purposes.
IDs:

KPGD - Punta Gorda/Charlott, FL, US

Issued at 2042 UTC 30 Jun 2022
Updated at 2147 UTC 30 Jun 2022
Potential Impact None Slight Moderate High
Time2138Z 30/22Z 30/23Z 01/00Z 01/01Z 01/02Z 01/03Z 01/04Z 01/05Z 01/06Z 01/07Z 01/08Z 01/09Z 01/10Z>>
Type OBS PRVL
  [TEMP]  
PRVL PRVL PRVL PRVL PRVL PRVL PRVL PRVL PRVL PRVL PRVL PRVL
VIS 1 >6
  [2]  
>6 >6 >6 >6 >6 >6 >6 >6 >6 >6 >6 >6
CIG 44 150
  [25]  
150 150 200 200 200 200 200 200 200 200 200 200
Cover OVC BKN
  [BKN]  
BKN BKN BKN BKN BKN BKN BKN BKN BKN BKN BKN BKN
FltCat IFR VFR
  [IFR]  
VFR VFR VFR VFR VFR VFR VFR VFR VFR VFR VFR VFR
WX +TSRA VCTS
  [TSRA]  
VCTS VCTS -- -- -- -- -- -- -- -- -- --
WDir 260 250
[VRB]
250 250 VRB VRB VRB VRB VRB VRB VRB VRB VRB VRB
WSpd 7 7
  [15]  
7 7 3 3 3 3 3 3 3 3 3 3
WGst -- --
  [25]  
-- -- -- -- -- -- -- -- -- -- -- --
WSHgt -- --
[--]
-- -- -- -- -- -- -- -- -- -- -- --
WSDir -- --
[--]
-- -- -- -- -- -- -- -- -- -- -- --
WSSpd -- --
[--]
-- -- -- -- -- -- -- -- -- -- -- --
Raw TAF
KPGD 302042Z 3021/0118 25007KT P6SM VCTS SCT030CB BKN150
  TEMPO 3021/3023 VRB15G25KT 2SM TSRA BKN025CB
  FM010100 VRB03KT P6SM SCT035 BKN200
  FM011600 15006KT P6SM FEW250


Raw METAR
KPGD 302138Z 26007KT 200V300 1SM +TSRA SCT019 BKN044 OVC070 27/22 A3009 RMK AO2 PK WND 07030/2126 LTG DSNT ALQDS RAB21 TSB16 P0061 T02670217
KPGD 302128Z 10013G30KT 060V150 3/4SM +TSRA FEW015 SCT045 BKN065 28/24 A3009 RMK AO2 PK WND 07030/2126 VIS 1/4V5 LTG DSNT ALQDS RAB21 TSB16 PRESRR P0028 T02780244
KPGD 302122Z 36007G16KT 6SM -TSRA FEW055 SCT070 BKN080 32/23 A3008 RMK AO2 LTG DSNT E-S RAB21 TSB16 PRESRR P0002 T03220233
KPGD 302101Z 28009KT 10SM VCTS CLR 33/23 A3005 RMK AO2 LTG DSNT SE AND S AND NW T03330228
KPGD 302053Z 30011G15KT 10SM FEW060 34/23 A3006 RMK AO2 LTG DSNT SE AND S AND NW SLP176 T03390233 56018
KPGD 301953Z 25004KT 10SM FEW055 33/22 A3006 RMK AO2 SLP177 T03330217
KPGD 301853Z 00000KT 10SM FEW055 33/22 A3008 RMK AO2 SLP186 T03330222

METAR Board
Radar Display
Forecast Discussion
For situational awareness. Not to be used for flight planning purposes.